createdAt,value
2018-12-04T00:02:56.351Z,1.63
2018-12-04T00:05:26.426Z,1.50
2018-12-04T00:07:56.342Z,1.50
2018-12-04T00:10:26.298Z,1.60
2018-12-04T00:12:56.388Z,1.43
2018-12-04T00:15:26.399Z,1.53
2018-12-04T00:17:56.428Z,1.50
2018-12-04T00:20:26.349Z,1.67
2018-12-04T00:22:56.335Z,1.75
2018-12-04T00:25:26.252Z,1.40
2018-12-04T00:27:56.129Z,1.43
2018-12-04T00:33:25.000Z,1.17
2018-12-04T00:35:54.974Z,1.57
2018-12-04T00:38:24.814Z,1.97
2018-12-04T00:44:10.534Z,1.70
2018-12-04T00:46:40.432Z,1.50
2018-12-04T00:49:10.438Z,1.90
2018-12-04T00:51:40.423Z,3.37
2018-12-04T00:54:10.376Z,2.53
2018-12-04T00:56:40.267Z,2.23
2018-12-04T00:59:10.208Z,1.65
2018-12-04T01:01:40.107Z,2.03
2018-12-04T01:04:10.022Z,1.87
2018-12-04T01:06:39.926Z,1.25
2018-12-04T01:09:11.714Z,1.63
2018-12-04T01:11:43.532Z,1.32
2018-12-04T01:14:13.561Z,1.53
2018-12-04T01:16:43.440Z,2.83
2018-12-04T01:19:13.365Z,1.30
2018-12-04T01:21:43.249Z,1.40
2018-12-04T01:24:14.279Z,1.43
2018-12-04T01:26:44.715Z,2.17
2018-12-04T01:29:14.585Z,1.92
2018-12-04T01:31:44.469Z,1.00
2018-12-04T01:34:14.399Z,1.10
2018-12-04T01:36:44.267Z,1.60
2018-12-04T01:39:14.185Z,1.10
2018-12-04T01:41:44.097Z,1.42
2018-12-04T01:44:13.980Z,1.00
2018-12-04T01:46:43.963Z,1.32
2018-12-04T01:49:13.914Z,1.07
2018-12-04T01:51:43.849Z,1.53
2018-12-04T01:54:13.729Z,0.90
2018-12-04T01:56:43.616Z,1.30
2018-12-04T02:02:15.767Z,1.50
2018-12-04T02:04:45.692Z,1.37
2018-12-04T02:07:15.627Z,1.37
2018-12-04T02:09:45.597Z,1.42
2018-12-04T02:12:15.497Z,1.80
2018-12-04T02:14:45.385Z,1.20
2018-12-04T02:17:15.263Z,2.55
2018-12-04T02:19:45.264Z,1.60
2018-12-04T02:22:15.162Z,1.57
2018-12-04T02:24:56.816Z,1.03
2018-12-04T02:27:26.719Z,1.90
2018-12-04T02:29:56.655Z,1.50
2018-12-04T02:32:26.508Z,1.70
2018-12-04T02:34:56.434Z,1.42
2018-12-04T02:40:43.643Z,2.80
2018-12-04T02:43:13.587Z,2.10
2018-12-04T02:45:43.839Z,1.87
2018-12-04T02:48:13.739Z,2.60
2018-12-04T02:50:43.740Z,2.17
2018-12-04T02:53:13.620Z,1.53
2018-12-04T02:55:44.045Z,1.95
2018-12-04T02:58:14.413Z,1.55
2018-12-04T03:00:44.408Z,1.47
2018-12-04T03:05:54.850Z,1.82
2018-12-04T03:08:24.985Z,2.40
2018-12-04T03:10:54.919Z,1.83
2018-12-04T03:13:24.862Z,2.13
2018-12-04T03:15:54.790Z,1.22
2018-12-04T03:18:24.699Z,1.33
2018-12-04T03:20:54.607Z,1.13
2018-12-04T03:23:24.620Z,1.60
2018-12-04T03:25:54.652Z,2.30
2018-12-04T03:28:24.576Z,2.00
2018-12-04T03:30:56.401Z,2.12
2018-12-04T03:33:45.497Z,1.70
2018-12-04T03:36:15.366Z,1.42
2018-12-04T03:38:45.270Z,1.70
2018-12-04T03:41:15.254Z,2.20
2018-12-04T03:43:45.133Z,1.90
2018-12-04T03:46:15.071Z,1.62
2018-12-04T03:48:45.114Z,1.65
2018-12-04T03:54:17.229Z,1.53
2018-12-04T03:56:47.121Z,1.40
2018-12-04T03:59:17.061Z,1.62
2018-12-04T04:01:47.087Z,1.33
2018-12-04T04:04:16.996Z,1.90
2018-12-04T04:06:46.912Z,1.70
2018-12-04T04:09:16.891Z,1.60
2018-12-04T04:11:46.809Z,1.72
2018-12-04T04:14:16.838Z,1.67
2018-12-04T04:16:46.825Z,1.90
2018-12-04T04:19:16.790Z,1.87
2018-12-04T04:21:46.813Z,1.30
2018-12-04T04:24:17.504Z,1.47
2018-12-04T04:26:47.423Z,1.27
2018-12-04T04:29:17.431Z,1.37
2018-12-04T04:31:47.285Z,2.30
2018-12-04T04:34:17.185Z,1.90
2018-12-04T04:36:47.114Z,1.70
2018-12-04T04:39:17.195Z,1.50
2018-12-04T04:41:47.156Z,1.30
2018-12-04T04:47:32.377Z,1.70
2018-12-04T04:50:02.344Z,1.30
2018-12-04T04:52:32.214Z,1.70
2018-12-04T04:55:02.096Z,1.40
2018-12-04T04:57:32.005Z,1.30
2018-12-04T05:00:02.346Z,1.93
2018-12-04T05:02:34.160Z,1.57
2018-12-04T05:05:18.778Z,2.37
2018-12-04T05:07:42.350Z,1.30
2018-12-04T05:10:12.409Z,1.55
2018-12-04T05:12:42.344Z,2.17
2018-12-04T05:15:12.391Z,1.50
2018-12-04T05:17:42.256Z,1.40
2018-12-04T05:20:12.219Z,2.25
2018-12-04T05:22:42.121Z,1.77
2018-12-04T05:25:12.139Z,1.52
2018-12-04T05:27:42.035Z,1.30
2018-12-04T05:30:12.178Z,1.70
2018-12-04T05:32:42.085Z,1.30
2018-12-04T05:35:12.023Z,1.40
2018-12-04T05:43:44.319Z,1.85
2018-12-04T05:46:14.230Z,1.50
2018-12-04T05:48:44.112Z,1.80
2018-12-04T05:54:16.652Z,1.23
2018-12-04T05:56:46.556Z,1.30
2018-12-04T05:59:16.447Z,1.37
2018-12-04T06:01:46.409Z,1.40
2018-12-04T06:04:16.285Z,1.83
2018-12-04T06:06:46.200Z,1.35
2018-12-04T06:09:16.198Z,1.70
2018-12-04T06:11:46.130Z,1.20
2018-12-04T06:14:16.019Z,2.02
2018-12-04T06:16:45.947Z,1.60
2018-12-04T06:21:56.204Z,1.50
2018-12-04T06:24:26.875Z,1.70
2018-12-04T06:27:08.223Z,2.07
2018-12-04T06:29:38.076Z,2.13
2018-12-04T06:32:09.956Z,1.90
2018-12-04T06:34:39.944Z,2.40
2018-12-04T06:37:10.885Z,1.50
2018-12-04T06:39:40.796Z,1.97
2018-12-04T06:42:10.729Z,1.70
2018-12-04T06:44:40.691Z,1.40
2018-12-04T06:47:10.735Z,1.40
2018-12-04T06:49:40.676Z,1.70
2018-12-04T06:52:10.634Z,1.77
2018-12-04T06:54:40.801Z,4.00
2018-12-04T06:57:10.801Z,1.63
2018-12-04T06:59:40.673Z,2.00
2018-12-04T07:02:10.706Z,1.83
2018-12-04T07:04:40.669Z,2.17
2018-12-04T07:07:10.510Z,1.60
2018-12-04T07:09:40.409Z,1.55
2018-12-04T07:12:10.335Z,1.30
2018-12-04T07:14:40.219Z,1.10
2018-12-04T07:17:10.131Z,1.77
2018-12-04T07:19:40.037Z,1.80
2018-12-04T07:22:09.946Z,1.97
2018-12-04T07:27:54.828Z,2.40
2018-12-04T07:30:24.925Z,1.70
2018-12-04T07:32:54.916Z,1.65
2018-12-04T07:35:24.832Z,1.62
2018-12-04T07:37:54.792Z,1.17
2018-12-04T07:40:24.713Z,1.70
2018-12-04T07:42:54.622Z,1.77
2018-12-04T07:45:24.506Z,1.90
2018-12-04T07:47:54.436Z,1.23
2018-12-04T07:50:24.349Z,1.85
2018-12-04T07:52:54.335Z,2.10
2018-12-04T07:55:24.193Z,1.90
2018-12-04T07:57:56.040Z,1.43
2018-12-04T08:00:25.924Z,1.70
2018-12-04T08:02:55.853Z,1.70
2018-12-04T08:05:26.424Z,1.87
2018-12-04T08:07:57.188Z,1.82
2018-12-04T08:10:27.062Z,1.83
2018-12-04T08:12:56.997Z,2.00
2018-12-04T08:15:26.991Z,1.65
2018-12-04T08:17:56.977Z,1.93
2018-12-04T08:20:26.908Z,1.77
2018-12-04T08:22:56.863Z,1.30
2018-12-04T08:25:26.743Z,1.72
2018-12-04T08:27:56.731Z,1.60
2018-12-04T08:30:47.514Z,1.10
2018-12-04T08:33:17.528Z,1.47
2018-12-04T08:41:42.932Z,1.70
2018-12-04T08:44:12.872Z,1.60
2018-12-04T08:46:42.772Z,1.20
2018-12-04T08:49:12.715Z,1.47
2018-12-04T08:51:42.615Z,1.80
2018-12-04T08:54:12.604Z,2.77
2018-12-04T08:56:42.485Z,1.40
2018-12-04T08:59:12.495Z,1.83
2018-12-04T09:01:42.434Z,1.10
2018-12-04T09:04:12.375Z,1.50
2018-12-04T09:06:42.286Z,1.50
2018-12-04T09:09:12.538Z,1.63
2018-12-04T09:11:42.423Z,1.43
2018-12-04T09:14:12.446Z,2.00
2018-12-04T09:16:44.337Z,2.20
2018-12-04T09:19:14.263Z,1.12
2018-12-04T09:21:44.150Z,2.00
2018-12-04T09:24:14.125Z,1.87
2018-12-04T09:26:43.983Z,1.93
2018-12-04T09:29:14.925Z,1.15
2018-12-04T09:31:56.525Z,1.70
2018-12-04T09:34:29.849Z,2.40
2018-12-04T09:37:17.762Z,1.70
2018-12-04T09:39:47.821Z,2.60
2018-12-04T09:42:17.737Z,1.42
2018-12-04T09:44:47.722Z,1.20
2018-12-04T09:47:17.590Z,1.47
2018-12-04T09:49:47.644Z,2.52
2018-12-04T09:52:18.463Z,1.75
2018-12-04T09:54:48.388Z,2.00
2018-12-04T09:57:18.263Z,1.70
2018-12-04T09:59:49.729Z,3.53
2018-12-04T10:02:19.702Z,1.47
2018-12-04T10:04:49.585Z,1.70
2018-12-04T10:07:19.424Z,2.20
2018-12-04T10:09:49.369Z,1.60
2018-12-04T10:12:19.253Z,1.30
2018-12-04T10:14:49.274Z,1.60
2018-12-04T10:17:19.164Z,1.37
2018-12-04T10:19:49.184Z,1.70
2018-12-04T10:22:19.200Z,1.65
2018-12-04T10:24:49.334Z,1.70
2018-12-04T10:27:19.223Z,2.10
2018-12-04T10:29:49.218Z,2.47
2018-12-04T10:32:19.134Z,2.03
2018-12-04T10:34:49.075Z,2.33
2018-12-04T10:37:18.995Z,1.30
2018-12-04T10:39:48.909Z,1.53
2018-12-04T10:42:18.887Z,1.53
2018-12-04T10:44:48.791Z,1.65
2018-12-04T10:47:18.655Z,1.90
2018-12-04T10:49:48.877Z,2.50
2018-12-04T10:52:18.741Z,2.13
2018-12-04T10:54:48.676Z,2.30
2018-12-04T10:57:18.620Z,1.77
2018-12-04T10:59:48.549Z,1.82
2018-12-04T11:02:37.183Z,1.70
2018-12-04T11:05:07.266Z,1.37
2018-12-04T11:07:37.172Z,1.55
2018-12-04T11:10:07.198Z,1.87
2018-12-04T11:12:37.139Z,1.67
2018-12-04T11:15:27.824Z,1.67
2018-12-04T11:17:57.778Z,2.50
2018-12-04T11:20:27.812Z,1.43
2018-12-04T11:22:57.970Z,1.45
2018-12-04T11:25:27.965Z,1.57
2018-12-04T11:27:57.845Z,1.57
2018-12-04T11:30:27.777Z,1.20
2018-12-04T11:32:57.713Z,1.50
2018-12-04T11:35:27.622Z,1.93
2018-12-04T11:40:59.230Z,1.40
2018-12-04T11:43:42.221Z,1.27
2018-12-04T11:46:12.116Z,1.70
2018-12-04T11:48:42.030Z,1.83
2018-12-04T11:51:12.120Z,1.55
2018-12-04T11:53:42.007Z,1.43
2018-12-04T11:56:11.975Z,1.52
2018-12-04T11:58:41.862Z,1.15
2018-12-04T12:04:08.327Z,1.40
2018-12-04T12:06:38.214Z,1.70
2018-12-04T12:09:10.409Z,2.10
2018-12-04T12:11:40.335Z,1.60
2018-12-04T12:14:10.369Z,1.65
2018-12-04T12:16:40.279Z,2.12
2018-12-04T12:19:10.225Z,1.85
2018-12-04T12:21:40.147Z,1.90
2018-12-04T12:24:10.091Z,1.57
2018-12-04T12:26:39.997Z,1.53
2018-12-04T12:29:09.974Z,1.85
2018-12-04T12:31:39.933Z,1.90
2018-12-04T12:34:09.883Z,1.87
2018-12-04T12:36:39.818Z,1.97
2018-12-04T12:39:09.965Z,1.77
2018-12-04T12:41:41.828Z,2.77
2018-12-04T12:44:11.802Z,1.60
2018-12-04T12:46:41.715Z,1.85
2018-12-04T12:49:11.585Z,2.27
2018-12-04T12:51:41.557Z,1.20
2018-12-04T12:54:11.400Z,1.77
2018-12-04T12:56:41.316Z,2.33
2018-12-04T12:59:11.246Z,2.83
2018-12-04T13:01:41.257Z,2.73
2018-12-04T13:04:11.163Z,1.40
2018-12-04T13:06:41.101Z,2.10
2018-12-04T13:09:11.022Z,1.57
2018-12-04T13:11:40.952Z,2.20
2018-12-04T13:14:10.853Z,1.90
2018-12-04T13:16:40.753Z,1.65
2018-12-04T13:19:10.652Z,1.60
2018-12-04T13:21:41.054Z,1.40
2018-12-04T13:24:32.434Z,2.00
2018-12-04T13:29:43.441Z,1.93
2018-12-04T13:32:13.363Z,2.08
2018-12-04T13:40:46.331Z,1.72
2018-12-04T13:43:16.215Z,1.63
2018-12-04T13:45:46.149Z,1.67
2018-12-04T13:48:16.125Z,1.52
2018-12-04T13:50:46.001Z,2.02
2018-12-04T13:53:15.874Z,2.45
2018-12-04T13:55:45.792Z,1.67
2018-12-04T13:58:15.642Z,1.42
2018-12-04T14:00:46.395Z,1.33
2018-12-04T14:03:45.673Z,1.70
2018-12-04T14:06:15.533Z,1.63
2018-12-04T14:08:45.491Z,1.37
2018-12-04T14:11:15.410Z,1.83
2018-12-04T14:13:45.491Z,1.87
2018-12-04T14:16:15.439Z,1.92
2018-12-04T14:18:45.411Z,2.95
2018-12-04T14:21:15.469Z,1.60
2018-12-04T14:23:45.372Z,1.90
2018-12-04T14:26:15.569Z,1.75
2018-12-04T14:28:45.467Z,1.50
2018-12-04T14:31:18.106Z,1.60
2018-12-04T14:33:48.015Z,2.13
2018-12-04T14:39:20.996Z,1.95
2018-12-04T14:44:45.722Z,1.93
2018-12-04T14:47:15.680Z,1.67
2018-12-04T14:49:45.647Z,1.77
2018-12-04T14:52:15.660Z,1.90
2018-12-04T14:54:45.499Z,1.30
2018-12-04T14:57:15.482Z,1.80
2018-12-04T14:59:45.558Z,2.17
2018-12-04T15:02:15.479Z,1.65
2018-12-04T15:04:46.781Z,1.60
2018-12-04T15:10:02.183Z,1.90
2018-12-04T15:12:32.218Z,1.87
2018-12-04T15:18:27.234Z,2.35
2018-12-04T15:20:57.154Z,1.93
2018-12-04T15:23:27.107Z,1.80
2018-12-04T15:25:56.975Z,1.65
2018-12-04T15:31:21.772Z,1.80
2018-12-04T15:33:51.660Z,1.67
2018-12-04T15:36:21.615Z,2.00
2018-12-04T15:39:10.581Z,1.37
2018-12-04T15:41:40.573Z,1.50
2018-12-04T15:44:10.498Z,1.90
2018-12-04T15:46:40.567Z,1.63
2018-12-04T15:49:10.527Z,2.00
2018-12-04T15:51:40.470Z,1.80
2018-12-04T15:54:10.327Z,3.42
2018-12-04T15:59:42.931Z,1.97
2018-12-04T16:02:13.805Z,1.95
2018-12-04T16:04:43.736Z,1.60
2018-12-04T16:07:13.670Z,2.20
2018-12-04T16:09:43.632Z,1.67
2018-12-04T16:12:13.600Z,1.83
2018-12-04T16:14:43.476Z,2.20
2018-12-04T16:17:15.324Z,2.05
2018-12-04T16:20:25.755Z,1.60
2018-12-04T16:22:55.716Z,4.50
2018-12-04T16:25:25.618Z,3.60
2018-12-04T16:27:55.588Z,4.65
2018-12-04T16:30:25.684Z,4.33
2018-12-04T16:32:55.716Z,4.20
2018-12-04T16:35:25.607Z,3.47
2018-12-04T16:38:14.632Z,4.00
2018-12-04T16:40:44.587Z,3.30
2018-12-04T16:43:14.562Z,2.90
2018-12-04T16:45:44.577Z,9.55
2018-12-04T16:48:14.503Z,9.70
2018-12-04T16:50:44.391Z,15.43
2018-12-04T16:53:14.297Z,13.47
2018-12-04T16:58:53.830Z,7.42
2018-12-04T17:01:23.709Z,7.22
2018-12-04T17:03:53.710Z,4.90
2018-12-04T17:06:23.617Z,5.93
2018-12-04T17:08:53.545Z,5.60
2018-12-04T17:11:23.776Z,5.30
2018-12-04T17:13:53.714Z,3.80
2018-12-04T17:16:23.656Z,3.00
2018-12-04T17:22:08.858Z,3.27
2018-12-04T17:24:40.821Z,2.98
2018-12-04T17:27:10.933Z,3.87
2018-12-04T17:29:40.853Z,2.20
2018-12-04T17:32:10.806Z,2.98
2018-12-04T17:34:40.705Z,3.02
2018-12-04T17:37:10.720Z,3.02
2018-12-04T17:39:40.614Z,2.27
2018-12-04T17:42:10.538Z,3.87
2018-12-04T17:44:41.279Z,3.02
2018-12-04T17:47:11.218Z,3.07
2018-12-04T17:49:41.138Z,3.13
2018-12-04T17:52:11.096Z,3.17
2018-12-04T17:54:41.059Z,2.92
2018-12-04T17:57:11.022Z,3.70
2018-12-04T17:59:42.837Z,3.20
2018-12-04T18:02:14.640Z,3.47
2018-12-04T18:04:44.616Z,3.80
2018-12-04T18:07:17.158Z,3.10
2018-12-04T18:09:47.151Z,2.87
2018-12-04T18:15:01.585Z,3.33
2018-12-04T18:17:31.781Z,2.72
2018-12-04T18:23:11.900Z,3.17
2018-12-04T18:25:41.916Z,2.37
2018-12-04T18:28:11.877Z,2.67
2018-12-04T18:30:42.078Z,3.02
2018-12-04T18:33:13.096Z,3.03
2018-12-04T18:36:02.648Z,3.00
2018-12-04T18:38:32.690Z,3.70
2018-12-04T18:41:02.818Z,3.03
2018-12-04T18:43:32.888Z,2.37
2018-12-04T18:46:02.825Z,3.47
2018-12-04T18:48:43.604Z,3.30
2018-12-04T18:51:13.516Z,2.77
2018-12-04T18:53:43.574Z,2.63
2018-12-04T18:56:13.454Z,2.70
2018-12-04T18:58:43.498Z,2.63
2018-12-04T19:01:13.518Z,2.63
2018-12-04T19:03:43.435Z,2.63
2018-12-04T19:06:13.471Z,2.30
2018-12-04T19:08:55.268Z,1.98
2018-12-04T19:14:05.811Z,3.57
2018-12-04T19:16:35.681Z,3.77
2018-12-04T19:19:05.736Z,3.73
2018-12-04T19:21:35.671Z,3.67
2018-12-04T19:24:05.818Z,3.00
2018-12-04T19:26:47.708Z,4.17
2018-12-04T19:29:17.778Z,2.87
2018-12-04T19:31:47.669Z,3.17
2018-12-04T19:34:17.660Z,3.40
2018-12-04T19:36:47.503Z,3.02
2018-12-04T19:39:17.582Z,2.73
2018-12-04T19:41:47.485Z,2.70
2018-12-04T19:44:17.419Z,2.90
2018-12-04T19:46:47.328Z,2.55
2018-12-04T19:49:17.263Z,2.58
2018-12-04T19:51:47.190Z,2.33
2018-12-04T19:54:17.132Z,2.72
2018-12-04T19:56:47.128Z,2.47
2018-12-04T19:59:17.091Z,2.67
2018-12-04T20:01:48.870Z,3.83
2018-12-04T20:04:18.790Z,4.30
2018-12-04T20:06:48.680Z,3.53
2018-12-04T20:09:18.647Z,3.37
2018-12-04T20:11:48.680Z,2.67
2018-12-04T20:14:18.609Z,4.00
2018-12-04T20:16:48.721Z,4.20
2018-12-04T20:19:18.701Z,3.33
2018-12-04T20:21:48.750Z,3.93
2018-12-04T20:24:18.735Z,3.57
2018-12-04T20:26:48.809Z,4.93
2018-12-04T20:29:18.753Z,5.03
2018-12-04T20:31:48.730Z,5.07
2018-12-04T20:34:18.779Z,5.27
2018-12-04T20:36:50.770Z,5.20
2018-12-04T20:39:20.681Z,5.17
2018-12-04T20:41:50.645Z,5.60
2018-12-04T20:44:32.575Z,4.23
2018-12-04T20:50:06.316Z,6.50
2018-12-04T20:52:36.394Z,8.15
2018-12-04T20:55:08.981Z,6.80
2018-12-04T20:57:38.644Z,8.60
2018-12-04T21:00:10.820Z,6.57
2018-12-04T21:02:42.553Z,3.60
2018-12-04T21:05:12.496Z,3.87
2018-12-04T21:07:44.734Z,4.03
2018-12-04T21:10:25.906Z,3.40
2018-12-04T21:15:45.540Z,3.53
2018-12-04T21:18:15.590Z,3.37
2018-12-04T21:20:45.506Z,3.77
2018-12-04T21:23:15.477Z,2.47
2018-12-04T21:25:45.582Z,5.57
2018-12-04T21:28:34.605Z,4.77
2018-12-04T21:31:23.387Z,5.70
2018-12-04T21:34:12.192Z,5.60
2018-12-04T21:37:00.831Z,3.97
2018-12-04T21:39:49.690Z,4.90
2018-12-04T21:42:38.351Z,4.60
2018-12-04T21:45:27.337Z,5.40
2018-12-04T21:50:59.867Z,3.20
2018-12-04T21:53:36.026Z,3.92
2018-12-04T21:56:05.962Z,3.92
2018-12-04T21:58:36.033Z,3.57
2018-12-04T22:01:05.936Z,3.60
2018-12-04T22:03:36.152Z,3.23
2018-12-04T22:06:06.145Z,3.60
2018-12-04T22:08:37.081Z,3.06
2018-12-04T22:11:06.966Z,4.30
2018-12-04T22:13:43.100Z,2.75
2018-12-04T22:16:13.064Z,2.87
2018-12-04T22:18:43.017Z,2.67
2018-12-04T22:21:12.904Z,3.03
2018-12-04T22:23:43.040Z,3.23
2018-12-04T22:26:12.987Z,2.53
2018-12-04T22:28:42.959Z,2.50
2018-12-04T22:31:12.929Z,2.40
2018-12-04T22:33:42.841Z,2.10
2018-12-04T22:36:12.821Z,3.22
2018-12-04T22:39:01.942Z,2.30
2018-12-04T22:41:33.829Z,2.27
2018-12-04T22:44:22.926Z,2.30
2018-12-04T22:46:52.942Z,3.57
2018-12-04T22:49:22.913Z,3.33
2018-12-04T22:51:52.826Z,4.57
2018-12-04T22:54:22.762Z,3.73
2018-12-04T22:56:52.694Z,4.70
2018-12-04T22:59:22.715Z,3.50
2018-12-04T23:01:52.799Z,3.52
2018-12-04T23:04:23.032Z,4.00
2018-12-04T23:06:52.932Z,3.37
2018-12-04T23:09:24.873Z,2.70
2018-12-04T23:11:54.943Z,3.67
2018-12-04T23:14:24.927Z,2.50
2018-12-04T23:16:55.074Z,3.30
2018-12-04T23:19:25.113Z,3.10
2018-12-04T23:21:55.038Z,3.10
2018-12-04T23:24:25.770Z,2.30
2018-12-04T23:26:55.844Z,2.50
2018-12-04T23:29:25.828Z,2.23
2018-12-04T23:31:55.810Z,2.23
2018-12-04T23:37:21.591Z,2.10
2018-12-04T23:39:51.641Z,2.00
2018-12-04T23:42:21.518Z,1.90
2018-12-04T23:44:51.487Z,3.65
2018-12-04T23:47:21.580Z,2.43
2018-12-04T23:49:51.506Z,2.37
2018-12-04T23:53:01.544Z,2.15
2018-12-04T23:55:31.505Z,2.83
2018-12-04T23:58:01.496Z,2.15
